createdAt,value
2022-09-01T00:03:39.683Z,3.20
2022-09-01T00:08:42.547Z,3.55
2022-09-01T00:13:45.195Z,3.50
2022-09-01T00:18:50.088Z,3.45
2022-09-01T00:23:52.666Z,3.08
2022-09-01T00:28:55.362Z,3.30
2022-09-01T00:33:58.391Z,3.65
2022-09-01T00:39:00.979Z,3.55
2022-09-01T00:44:07.019Z,4.45
2022-09-01T00:49:20.303Z,4.40
2022-09-01T00:54:27.435Z,4.63
2022-09-01T00:59:30.403Z,5.35
2022-09-01T01:04:32.791Z,4.60
2022-09-01T01:09:37.017Z,4.50
2022-09-01T01:14:40.121Z,5.70
2022-09-01T01:20:08.608Z,5.45
2022-09-01T01:25:12.970Z,5.82
2022-09-01T01:30:18.278Z,5.40
2022-09-01T01:35:23.480Z,5.72
2022-09-01T01:40:26.403Z,5.57
2022-09-01T01:45:29.448Z,5.13
2022-09-01T01:50:34.694Z,5.00
2022-09-01T01:55:38.423Z,5.28
2022-09-01T02:00:44.577Z,5.55
2022-09-01T02:05:49.190Z,5.18
2022-09-01T02:10:57.951Z,4.68
2022-09-01T02:16:04.230Z,5.15
2022-09-01T02:21:15.103Z,6.40
2022-09-01T02:26:23.832Z,4.97
2022-09-01T02:31:28.164Z,5.70
2022-09-01T02:36:35.244Z,4.57
2022-09-01T02:41:38.130Z,4.47
2022-09-01T02:46:44.536Z,4.72
2022-09-01T02:51:49.447Z,3.58
2022-09-01T02:56:54.641Z,4.40
2022-09-01T03:01:58.984Z,4.03
2022-09-01T03:07:04.219Z,5.20
2022-09-01T03:12:07.298Z,4.00
2022-09-01T03:17:11.360Z,4.25
2022-09-01T03:22:13.842Z,3.90
2022-09-01T03:27:17.171Z,4.40
2022-09-01T03:32:19.968Z,3.88
2022-09-01T03:37:23.555Z,4.00
2022-09-01T03:42:31.123Z,3.45
2022-09-01T03:47:33.763Z,3.20
2022-09-01T03:52:37.155Z,3.97
2022-09-01T03:57:42.657Z,3.13
2022-09-01T04:02:45.455Z,4.05
2022-09-01T04:07:53.668Z,3.90
2022-09-01T04:12:59.227Z,3.47
2022-09-01T04:18:09.573Z,3.38
2022-09-01T04:23:13.316Z,2.92
2022-09-01T04:28:23.226Z,3.80
2022-09-01T04:33:27.883Z,3.25
2022-09-01T04:38:35.798Z,2.97
2022-09-01T04:43:38.315Z,3.20
2022-09-01T04:48:43.454Z,3.92
2022-09-01T04:53:49.663Z,3.30
2022-09-01T04:58:55.980Z,3.20
2022-09-01T05:04:01.580Z,2.90
2022-09-01T05:09:14.957Z,2.63
2022-09-01T05:14:48.806Z,3.03
2022-09-01T05:19:54.861Z,3.00
2022-09-01T05:24:58.270Z,2.63
2022-09-01T05:30:01.348Z,2.50
2022-09-01T05:35:08.439Z,2.25
2022-09-01T05:40:16.442Z,2.65
2022-09-01T05:45:23.517Z,2.55
2022-09-01T05:50:28.345Z,2.70
2022-09-01T05:55:35.734Z,2.60
2022-09-01T06:00:38.665Z,2.05
2022-09-01T06:05:42.462Z,2.20
2022-09-01T06:10:47.015Z,1.95
2022-09-01T06:15:56.114Z,1.70
2022-09-01T06:20:59.087Z,1.90
2022-09-01T06:26:01.843Z,1.67
2022-09-01T06:31:09.661Z,1.60
2022-09-01T06:36:12.926Z,1.05
2022-09-01T06:41:15.671Z,0.95
2022-09-01T06:46:18.243Z,1.00
2022-09-01T06:51:23.149Z,1.10
2022-09-01T07:01:35.699Z,2.40
2022-09-01T07:12:25.910Z,0.70
2022-09-01T07:17:31.084Z,0.82
2022-09-01T07:22:36.130Z,0.50
2022-09-01T07:42:31.639Z,1.15
2022-09-01T07:43:55.713Z,0.50
2022-09-01T07:49:51.405Z,0.70
2022-09-01T07:54:40.571Z,0.52
2022-09-01T07:59:43.310Z,0.93
2022-09-01T08:04:55.820Z,0.60
2022-09-01T08:10:01.404Z,0.60
2022-09-01T08:20:31.484Z,0.52
2022-09-01T08:26:00.133Z,0.70
2022-09-01T08:31:11.429Z,0.43
2022-09-01T08:36:20.232Z,0.63
2022-09-01T08:41:37.453Z,1.10
2022-09-01T08:46:42.507Z,0.70
2022-09-01T08:52:12.694Z,1.35
2022-09-01T08:57:21.995Z,2.03
2022-09-01T09:03:07.661Z,4.53
2022-09-01T09:13:25.007Z,1.50
2022-09-01T09:18:55.790Z,2.30
2022-09-01T09:24:24.593Z,1.33
2022-09-01T09:29:29.983Z,0.90
2022-09-01T09:34:36.843Z,0.65
2022-09-01T09:39:40.209Z,0.57
2022-09-01T09:44:51.265Z,1.35
2022-09-01T09:50:14.061Z,1.02
2022-09-01T09:55:23.649Z,1.27
2022-09-01T10:00:29.812Z,0.75
2022-09-01T10:05:58.217Z,1.02
2022-09-01T10:11:00.872Z,0.85
2022-09-01T10:16:11.340Z,0.70
2022-09-01T10:21:24.194Z,0.90
2022-09-01T10:26:36.365Z,0.93
2022-09-01T10:31:41.091Z,0.80
2022-09-01T10:36:47.044Z,0.98
2022-09-01T10:41:59.641Z,0.82
2022-09-01T10:47:27.168Z,0.60
2022-09-01T10:52:43.440Z,0.60
2022-09-01T10:58:08.546Z,0.80
2022-09-01T11:03:30.598Z,0.70
2022-09-01T11:08:34.124Z,0.38
2022-09-01T11:13:49.029Z,0.47
2022-09-01T11:18:52.587Z,1.00
2022-09-01T11:24:39.150Z,0.73
2022-09-01T11:30:01.311Z,0.60
2022-09-01T11:35:06.886Z,1.23
2022-09-01T11:40:10.568Z,0.40
2022-09-01T11:45:23.658Z,0.40
2022-09-01T11:50:34.755Z,0.28
2022-09-01T11:55:42.767Z,0.30
2022-09-01T12:00:45.876Z,1.35
2022-09-01T12:05:51.165Z,0.73
2022-09-01T12:11:04.118Z,0.50
2022-09-01T12:16:24.620Z,0.30
2022-09-01T12:21:27.014Z,0.30
2022-09-01T12:26:30.598Z,1.20
2022-09-01T12:31:33.172Z,1.02
2022-09-01T12:36:37.125Z,0.50
2022-09-01T12:41:40.729Z,1.20
2022-09-01T12:46:46.615Z,1.10
2022-09-01T12:51:49.318Z,0.82
2022-09-01T12:56:51.781Z,0.40
2022-09-01T13:01:54.413Z,0.38
2022-09-01T13:07:02.026Z,1.00
2022-09-01T13:17:38.385Z,0.60
2022-09-01T13:22:42.701Z,0.68
2022-09-01T13:27:47.572Z,0.35
2022-09-01T13:38:16.311Z,0.50
2022-09-01T13:43:22.311Z,0.57
2022-09-01T13:49:02.136Z,0.40
2022-09-01T13:53:48.171Z,0.80
2022-09-01T13:58:50.565Z,2.65
2022-09-01T14:03:55.107Z,0.73
2022-09-01T14:09:00.881Z,0.30
2022-09-01T14:14:03.635Z,0.90
2022-09-01T14:19:06.714Z,0.50
2022-09-01T14:24:09.275Z,0.82
2022-09-01T14:29:12.020Z,0.43
2022-09-01T14:34:16.421Z,0.30
2022-09-01T14:39:18.826Z,0.40
2022-09-01T14:44:21.343Z,0.20
2022-09-01T14:49:23.898Z,0.52
2022-09-01T14:54:26.341Z,0.40
2022-09-01T14:59:28.944Z,1.20
2022-09-01T15:04:32.282Z,0.70
2022-09-01T15:09:35.733Z,0.43
2022-09-01T15:14:38.500Z,0.40
2022-09-01T15:19:40.921Z,0.55
2022-09-01T15:24:44.646Z,0.40
2022-09-01T15:29:49.074Z,1.30
2022-09-01T15:34:51.624Z,1.15
2022-09-01T15:39:54.061Z,0.40
2022-09-01T15:44:56.439Z,0.50
2022-09-01T15:49:59.019Z,0.80
2022-09-01T15:55:01.813Z,1.27
2022-09-01T16:00:05.714Z,0.88
2022-09-01T16:05:14.651Z,0.85
2022-09-01T16:10:17.095Z,0.90
2022-09-01T16:15:22.378Z,0.52
2022-09-01T16:20:28.630Z,1.00
2022-09-01T16:25:34.744Z,0.80
2022-09-01T16:30:37.735Z,0.60
2022-09-01T16:35:55.969Z,0.43
2022-09-01T16:41:24.406Z,0.80
2022-09-01T16:46:35.676Z,0.95
2022-09-01T16:51:43.243Z,0.30
2022-09-01T16:56:51.568Z,0.47
2022-09-01T17:02:25.841Z,0.75
2022-09-01T17:07:40.208Z,1.48
2022-09-01T17:12:50.657Z,0.70
2022-09-01T17:18:06.306Z,0.60
2022-09-01T17:23:14.024Z,0.35
2022-09-01T17:28:31.525Z,0.77
2022-09-01T17:34:02.669Z,0.70
2022-09-01T17:39:16.814Z,0.70
2022-09-01T17:44:37.831Z,0.88
2022-09-01T17:49:52.395Z,0.68
2022-09-01T17:55:04.192Z,0.70
2022-09-01T18:00:08.684Z,0.93
2022-09-01T18:05:24.320Z,0.90
2022-09-01T18:10:35.197Z,1.13
2022-09-01T18:15:52.481Z,1.60
2022-09-01T18:26:09.306Z,1.10
2022-09-01T18:31:17.710Z,1.05
2022-09-01T18:36:38.971Z,1.05
2022-09-01T18:41:56.032Z,1.08
2022-09-01T18:47:05.310Z,1.40
2022-09-01T18:52:31.206Z,1.67
2022-09-01T18:57:40.170Z,1.40
2022-09-01T19:02:54.212Z,1.27
2022-09-01T19:07:59.389Z,1.00
2022-09-01T19:13:12.165Z,1.23
2022-09-01T19:18:32.040Z,1.25
2022-09-01T19:23:56.911Z,1.15
2022-09-01T19:29:02.308Z,1.08
2022-09-01T19:34:09.799Z,1.02
2022-09-01T19:44:39.709Z,1.10
2022-09-01T19:49:55.939Z,2.10
2022-09-01T19:55:03.056Z,3.40
2022-09-01T20:00:13.804Z,2.60
2022-09-01T20:05:46.461Z,3.28
2022-09-01T20:11:04.409Z,2.40
2022-09-01T20:16:40.248Z,2.88
2022-09-01T20:21:45.374Z,3.47
2022-09-01T20:26:47.778Z,5.82
2022-09-01T20:31:53.254Z,7.47
2022-09-01T20:37:02.058Z,10.00
2022-09-01T20:42:13.287Z,10.45
2022-09-01T20:47:15.699Z,8.52
2022-09-01T20:52:39.217Z,8.73
2022-09-01T20:58:11.902Z,11.68
2022-09-01T21:03:33.679Z,10.60
2022-09-01T21:08:45.518Z,8.82
2022-09-01T21:14:29.564Z,7.20
2022-09-01T21:19:58.572Z,6.25
2022-09-01T21:25:00.918Z,5.60
2022-09-01T21:30:12.413Z,6.32
2022-09-01T21:35:18.070Z,5.60
2022-09-01T21:40:22.535Z,4.70
2022-09-01T21:45:25.330Z,3.92
2022-09-01T21:50:28.001Z,4.03
2022-09-01T21:55:31.545Z,4.07
2022-09-01T22:00:36.493Z,3.47
2022-09-01T22:05:44.963Z,3.70
2022-09-01T22:10:50.105Z,3.60
2022-09-01T22:15:54.037Z,4.15
2022-09-01T22:21:07.188Z,4.50
2022-09-01T22:26:15.419Z,4.50
2022-09-01T22:31:20.554Z,4.28
2022-09-01T22:36:31.607Z,4.15
2022-09-01T22:41:34.741Z,3.40
2022-09-01T22:46:38.612Z,3.30
2022-09-01T22:51:42.592Z,3.10
2022-09-01T22:56:45.348Z,3.25
2022-09-01T23:01:51.616Z,3.25
2022-09-01T23:06:54.495Z,3.08
2022-09-01T23:11:56.982Z,3.97
2022-09-01T23:16:59.512Z,3.20
2022-09-01T23:22:03.292Z,4.53
2022-09-01T23:27:05.750Z,4.55
2022-09-01T23:32:08.253Z,3.90
2022-09-01T23:37:10.851Z,3.60
2022-09-01T23:42:13.270Z,3.35
2022-09-01T23:47:16.152Z,3.25
2022-09-01T23:52:18.506Z,3.75
2022-09-01T23:57:21.275Z,3.50
